sensor_id;sensor_type;location;lat;lon;timestamp;temperature;humidity
51029;DHT22;37054;52.054;8.600;2023-04-08T00:00:34;10.70;43.00
51029;DHT22;37054;52.054;8.600;2023-04-08T00:03:00;10.70;43.00
51029;DHT22;37054;52.054;8.600;2023-04-08T00:05:25;10.80;42.90
51029;DHT22;37054;52.054;8.600;2023-04-08T00:07:50;10.90;42.80
51029;DHT22;37054;52.054;8.600;2023-04-08T00:10:16;11.00;42.70
51029;DHT22;37054;52.054;8.600;2023-04-08T00:12:41;11.10;42.60
51029;DHT22;37054;52.054;8.600;2023-04-08T00:15:07;11.10;42.50
51029;DHT22;37054;52.054;8.600;2023-04-08T00:17:32;11.20;42.40
51029;DHT22;37054;52.054;8.600;2023-04-08T00:19:58;11.30;42.40
51029;DHT22;37054;52.054;8.600;2023-04-08T00:22:23;11.30;42.30
51029;DHT22;37054;52.054;8.600;2023-04-08T00:24:49;11.30;42.30
51029;DHT22;37054;52.054;8.600;2023-04-08T00:27:14;11.40;42.20
51029;DHT22;37054;52.054;8.600;2023-04-08T00:29:40;11.40;42.20
51029;DHT22;37054;52.054;8.600;2023-04-08T00:32:05;11.40;42.20
51029;DHT22;37054;52.054;8.600;2023-04-08T00:34:31;11.50;42.10
51029;DHT22;37054;52.054;8.600;2023-04-08T00:36:56;11.50;42.10
51029;DHT22;37054;52.054;8.600;2023-04-08T00:39:22;11.50;42.00
51029;DHT22;37054;52.054;8.600;2023-04-08T00:41:47;11.50;42.00
51029;DHT22;37054;52.054;8.600;2023-04-08T00:44:13;11.50;42.00
51029;DHT22;37054;52.054;8.600;2023-04-08T00:46:38;11.60;42.10
51029;DHT22;37054;52.054;8.600;2023-04-08T00:49:05;11.60;42.00
51029;DHT22;37054;52.054;8.600;2023-04-08T00:51:31;11.50;42.10
51029;DHT22;37054;52.054;8.600;2023-04-08T00:53:57;11.60;42.10
51029;DHT22;37054;52.054;8.600;2023-04-08T00:56:24;11.60;42.00
51029;DHT22;37054;52.054;8.600;2023-04-08T00:58:50;11.60;42.00
51029;DHT22;37054;52.054;8.600;2023-04-08T01:01:28;11.70;42.00
51029;DHT22;37054;52.054;8.600;2023-04-08T01:04:01;11.70;41.90
51029;DHT22;37054;52.054;8.600;2023-04-08T01:06:55;11.70;42.00
51029;DHT22;37054;52.054;8.600;2023-04-08T01:09:19;11.80;42.00
51029;DHT22;37054;52.054;8.600;2023-04-08T01:11:45;11.80;42.00
51029;DHT22;37054;52.054;8.600;2023-04-08T01:14:14;11.80;41.90
51029;DHT22;37054;52.054;8.600;2023-04-08T01:16:41;11.90;41.90
51029;DHT22;37054;52.054;8.600;2023-04-08T01:19:08;11.90;41.90
51029;DHT22;37054;52.054;8.600;2023-04-08T01:21:35;11.90;42.00
51029;DHT22;37054;52.054;8.600;2023-04-08T01:24:09;11.90;41.90
51029;DHT22;37054;52.054;8.600;2023-04-08T01:26:35;12.00;41.90
51029;DHT22;37054;52.054;8.600;2023-04-08T01:29:02;12.00;41.90
51029;DHT22;37054;52.054;8.600;2023-04-08T01:31:27;12.00;41.90
51029;DHT22;37054;52.054;8.600;2023-04-08T01:33:54;12.00;41.90
51029;DHT22;37054;52.054;8.600;2023-04-08T01:36:20;12.00;41.80
51029;DHT22;37054;52.054;8.600;2023-04-08T01:38:47;12.10;41.90
51029;DHT22;37054;52.054;8.600;2023-04-08T01:41:13;12.10;41.80
51029;DHT22;37054;52.054;8.600;2023-04-08T01:43:40;12.10;41.80
51029;DHT22;37054;52.054;8.600;2023-04-08T01:46:06;12.20;41.80
51029;DHT22;37054;52.054;8.600;2023-04-08T01:48:33;12.20;41.80
51029;DHT22;37054;52.054;8.600;2023-04-08T01:50:59;12.20;41.70
51029;DHT22;37054;52.054;8.600;2023-04-08T01:53:25;12.20;41.80
51029;DHT22;37054;52.054;8.600;2023-04-08T01:55:51;12.30;41.80
51029;DHT22;37054;52.054;8.600;2023-04-08T01:58:20;12.30;41.70
51029;DHT22;37054;52.054;8.600;2023-04-08T02:00:46;12.30;41.70
51029;DHT22;37054;52.054;8.600;2023-04-08T02:03:11;12.30;41.70
51029;DHT22;37054;52.054;8.600;2023-04-08T02:05:38;12.40;41.70
51029;DHT22;37054;52.054;8.600;2023-04-08T02:08:03;12.30;41.80
51029;DHT22;37054;52.054;8.600;2023-04-08T02:10:29;12.40;41.90
51029;DHT22;37054;52.054;8.600;2023-04-08T02:12:54;12.40;42.00
51029;DHT22;37054;52.054;8.600;2023-04-08T02:15:20;12.40;42.10
51029;DHT22;37054;52.054;8.600;2023-04-08T02:17:50;12.40;42.30
51029;DHT22;37054;52.054;8.600;2023-04-08T02:20:18;12.40;42.20
51029;DHT22;37054;52.054;8.600;2023-04-08T02:25:29;12.50;42.30
51029;DHT22;37054;52.054;8.600;2023-04-08T02:27:58;12.50;42.40
51029;DHT22;37054;52.054;8.600;2023-04-08T02:30:25;12.50;42.40
51029;DHT22;37054;52.054;8.600;2023-04-08T02:32:52;12.50;42.50
51029;DHT22;37054;52.054;8.600;2023-04-08T02:35:18;12.50;42.50
51029;DHT22;37054;52.054;8.600;2023-04-08T02:37:47;12.50;42.40
51029;DHT22;37054;52.054;8.600;2023-04-08T02:40:31;12.60;42.60
51029;DHT22;37054;52.054;8.600;2023-04-08T02:42:57;12.60;43.10
51029;DHT22;37054;52.054;8.600;2023-04-08T02:45:26;12.50;43.50
51029;DHT22;37054;52.054;8.600;2023-04-08T02:47:52;12.50;43.70
51029;DHT22;37054;52.054;8.600;2023-04-08T02:50:17;12.60;43.90
51029;DHT22;37054;52.054;8.600;2023-04-08T02:52:43;12.60;44.30
51029;DHT22;37054;52.054;8.600;2023-04-08T02:55:09;12.50;44.60
51029;DHT22;37054;52.054;8.600;2023-04-08T02:57:35;12.60;44.90
51029;DHT22;37054;52.054;8.600;2023-04-08T03:00:02;12.60;45.20
51029;DHT22;37054;52.054;8.600;2023-04-08T03:02:28;12.60;45.40
51029;DHT22;37054;52.054;8.600;2023-04-08T03:04:53;12.60;45.60
51029;DHT22;37054;52.054;8.600;2023-04-08T03:07:19;12.60;45.90
51029;DHT22;37054;52.054;8.600;2023-04-08T03:09:45;12.60;45.90
51029;DHT22;37054;52.054;8.600;2023-04-08T03:12:10;12.60;46.30
51029;DHT22;37054;52.054;8.600;2023-04-08T03:14:36;12.60;46.20
51029;DHT22;37054;52.054;8.600;2023-04-08T03:17:01;12.60;46.10
51029;DHT22;37054;52.054;8.600;2023-04-08T03:19:26;12.60;46.30
51029;DHT22;37054;52.054;8.600;2023-04-08T03:21:52;12.60;46.60
51029;DHT22;37054;52.054;8.600;2023-04-08T03:24:17;12.60;46.70
51029;DHT22;37054;52.054;8.600;2023-04-08T03:26:43;12.60;46.60
51029;DHT22;37054;52.054;8.600;2023-04-08T03:29:08;12.70;46.60
51029;DHT22;37054;52.054;8.600;2023-04-08T03:31:34;12.60;46.80
51029;DHT22;37054;52.054;8.600;2023-04-08T03:33:59;12.60;46.70
51029;DHT22;37054;52.054;8.600;2023-04-08T03:36:25;12.70;46.70
51029;DHT22;37054;52.054;8.600;2023-04-08T03:38:51;12.70;47.00
51029;DHT22;37054;52.054;8.600;2023-04-08T03:41:16;12.60;47.00
51029;DHT22;37054;52.054;8.600;2023-04-08T03:43:41;12.60;47.20
51029;DHT22;37054;52.054;8.600;2023-04-08T03:46:07;12.60;47.60
51029;DHT22;37054;52.054;8.600;2023-04-08T03:48:32;12.50;47.90
51029;DHT22;37054;52.054;8.600;2023-04-08T03:50:58;12.50;48.10
51029;DHT22;37054;52.054;8.600;2023-04-08T03:53:23;12.50;48.10
51029;DHT22;37054;52.054;8.600;2023-04-08T03:55:49;12.50;48.00
51029;DHT22;37054;52.054;8.600;2023-04-08T03:58:17;12.50;48.10
51029;DHT22;37054;52.054;8.600;2023-04-08T04:00:43;12.50;48.20
51029;DHT22;37054;52.054;8.600;2023-04-08T04:03:08;12.50;48.30
51029;DHT22;37054;52.054;8.600;2023-04-08T04:05:37;12.50;48.40
51029;DHT22;37054;52.054;8.600;2023-04-08T04:08:03;12.60;48.30
51029;DHT22;37054;52.054;8.600;2023-04-08T04:10:28;12.50;48.50
51029;DHT22;37054;52.054;8.600;2023-04-08T04:12:54;12.60;48.40
51029;DHT22;37054;52.054;8.600;2023-04-08T04:15:19;12.60;48.40
51029;DHT22;37054;52.054;8.600;2023-04-08T04:17:46;12.50;48.50
51029;DHT22;37054;52.054;8.600;2023-04-08T04:20:12;12.50;48.50
51029;DHT22;37054;52.054;8.600;2023-04-08T04:22:37;12.50;48.70
51029;DHT22;37054;52.054;8.600;2023-04-08T04:25:03;12.50;48.60
51029;DHT22;37054;52.054;8.600;2023-04-08T04:27:28;12.50;48.60
51029;DHT22;37054;52.054;8.600;2023-04-08T04:29:54;12.50;48.60
51029;DHT22;37054;52.054;8.600;2023-04-08T04:32:19;12.50;48.60
51029;DHT22;37054;52.054;8.600;2023-04-08T04:34:44;12.50;48.70
51029;DHT22;37054;52.054;8.600;2023-04-08T04:37:10;12.50;48.70
51029;DHT22;37054;52.054;8.600;2023-04-08T04:39:36;12.60;48.70
51029;DHT22;37054;52.054;8.600;2023-04-08T04:42:01;12.60;48.80
51029;DHT22;37054;52.054;8.600;2023-04-08T04:44:27;12.50;48.90
51029;DHT22;37054;52.054;8.600;2023-04-08T04:46:53;12.60;48.90
51029;DHT22;37054;52.054;8.600;2023-04-08T04:49:18;12.50;49.00
51029;DHT22;37054;52.054;8.600;2023-04-08T04:51:43;12.60;49.00
51029;DHT22;37054;52.054;8.600;2023-04-08T04:54:09;12.50;49.10
51029;DHT22;37054;52.054;8.600;2023-04-08T04:56:34;12.50;49.20
51029;DHT22;37054;52.054;8.600;2023-04-08T04:59:00;12.50;49.10
51029;DHT22;37054;52.054;8.600;2023-04-08T05:01:25;12.60;49.10
51029;DHT22;37054;52.054;8.600;2023-04-08T05:03:51;12.60;49.10
51029;DHT22;37054;52.054;8.600;2023-04-08T05:06:16;12.60;49.20
51029;DHT22;37054;52.054;8.600;2023-04-08T05:08:42;12.60;49.30
51029;DHT22;37054;52.054;8.600;2023-04-08T05:11:10;12.60;49.40
51029;DHT22;37054;52.054;8.600;2023-04-08T05:13:35;12.60;49.40
51029;DHT22;37054;52.054;8.600;2023-04-08T05:16:01;12.60;49.30
51029;DHT22;37054;52.054;8.600;2023-04-08T05:18:26;12.70;49.30
51029;DHT22;37054;52.054;8.600;2023-04-08T05:20:52;12.70;49.30
51029;DHT22;37054;52.054;8.600;2023-04-08T05:23:17;12.70;49.30
51029;DHT22;37054;52.054;8.600;2023-04-08T05:25:43;12.70;49.30
51029;DHT22;37054;52.054;8.600;2023-04-08T05:28:08;12.70;49.30
51029;DHT22;37054;52.054;8.600;2023-04-08T05:30:33;12.70;49.30
51029;DHT22;37054;52.054;8.600;2023-04-08T05:32:59;12.70;49.30
51029;DHT22;37054;52.054;8.600;2023-04-08T05:35:28;12.80;49.30
51029;DHT22;37054;52.054;8.600;2023-04-08T05:37:53;12.80;49.30
51029;DHT22;37054;52.054;8.600;2023-04-08T05:40:19;12.70;49.20
51029;DHT22;37054;52.054;8.600;2023-04-08T05:42:44;12.80;49.30
51029;DHT22;37054;52.054;8.600;2023-04-08T05:45:10;12.80;49.30
51029;DHT22;37054;52.054;8.600;2023-04-08T05:47:36;12.80;49.40
51029;DHT22;37054;52.054;8.600;2023-04-08T05:50:01;12.80;49.50
51029;DHT22;37054;52.054;8.600;2023-04-08T05:52:26;12.70;49.50
51029;DHT22;37054;52.054;8.600;2023-04-08T05:54:54;12.70;49.60
51029;DHT22;37054;52.054;8.600;2023-04-08T05:57:19;12.70;49.60
51029;DHT22;37054;52.054;8.600;2023-04-08T05:59:45;12.80;49.50
51029;DHT22;37054;52.054;8.600;2023-04-08T06:02:10;12.80;49.50
51029;DHT22;37054;52.054;8.600;2023-04-08T06:04:35;12.80;49.50
51029;DHT22;37054;52.054;8.600;2023-04-08T06:07:01;12.90;49.40
51029;DHT22;37054;52.054;8.600;2023-04-08T06:09:28;12.90;49.40
51029;DHT22;37054;52.054;8.600;2023-04-08T06:11:53;13.00;49.30
51029;DHT22;37054;52.054;8.600;2023-04-08T06:14:18;13.00;49.20
51029;DHT22;37054;52.054;8.600;2023-04-08T06:16:45;13.00;49.20
51029;DHT22;37054;52.054;8.600;2023-04-08T06:19:10;13.00;49.20
51029;DHT22;37054;52.054;8.600;2023-04-08T06:21:36;13.00;49.20
51029;DHT22;37054;52.054;8.600;2023-04-08T06:24:01;13.00;49.10
51029;DHT22;37054;52.054;8.600;2023-04-08T06:26:27;13.10;49.10
51029;DHT22;37054;52.054;8.600;2023-04-08T06:28:52;13.10;49.20
51029;DHT22;37054;52.054;8.600;2023-04-08T06:31:18;13.00;49.20
51029;DHT22;37054;52.054;8.600;2023-04-08T06:33:43;13.00;49.30
51029;DHT22;37054;52.054;8.600;2023-04-08T06:36:08;13.00;49.40
51029;DHT22;37054;52.054;8.600;2023-04-08T06:38:34;13.10;49.50
51029;DHT22;37054;52.054;8.600;2023-04-08T06:41:04;13.10;49.50
51029;DHT22;37054;52.054;8.600;2023-04-08T06:43:29;13.20;49.50
51029;DHT22;37054;52.054;8.600;2023-04-08T06:45:55;13.20;49.50
51029;DHT22;37054;52.054;8.600;2023-04-08T06:48:22;13.10;49.50
51029;DHT22;37054;52.054;8.600;2023-04-08T06:50:48;13.20;49.60
51029;DHT22;37054;52.054;8.600;2023-04-08T06:53:13;13.20;49.60
51029;DHT22;37054;52.054;8.600;2023-04-08T06:55:39;13.20;49.60
51029;DHT22;37054;52.054;8.600;2023-04-08T06:58:07;13.20;49.50
51029;DHT22;37054;52.054;8.600;2023-04-08T07:00:32;13.30;49.40
51029;DHT22;37054;52.054;8.600;2023-04-08T07:02:58;13.30;49.40
51029;DHT22;37054;52.054;8.600;2023-04-08T07:05:23;13.40;49.30
51029;DHT22;37054;52.054;8.600;2023-04-08T07:07:49;13.50;49.20
51029;DHT22;37054;52.054;8.600;2023-04-08T07:10:14;13.60;49.00
51029;DHT22;37054;52.054;8.600;2023-04-08T07:12:40;13.70;48.80
51029;DHT22;37054;52.054;8.600;2023-04-08T07:15:06;13.70;48.60
51029;DHT22;37054;52.054;8.600;2023-04-08T07:17:31;13.80;48.50
51029;DHT22;37054;52.054;8.600;2023-04-08T07:19:57;13.80;48.40
51029;DHT22;37054;52.054;8.600;2023-04-08T07:22:22;13.90;48.20
51029;DHT22;37054;52.054;8.600;2023-04-08T07:24:47;13.90;48.00
51029;DHT22;37054;52.054;8.600;2023-04-08T07:27:17;14.00;48.00
51029;DHT22;37054;52.054;8.600;2023-04-08T07:29:42;14.00;47.80
51029;DHT22;37054;52.054;8.600;2023-04-08T07:32:07;14.00;47.70
51029;DHT22;37054;52.054;8.600;2023-04-08T07:34:34;14.00;47.70
51029;DHT22;37054;52.054;8.600;2023-04-08T07:36:59;14.10;47.70
51029;DHT22;37054;52.054;8.600;2023-04-08T07:39:25;14.20;47.70
51029;DHT22;37054;52.054;8.600;2023-04-08T07:41:51;14.30;47.70
51029;DHT22;37054;52.054;8.600;2023-04-08T07:44:16;14.40;47.60
51029;DHT22;37054;52.054;8.600;2023-04-08T07:46:42;14.40;47.40
51029;DHT22;37054;52.054;8.600;2023-04-08T07:49:09;14.50;47.10
51029;DHT22;37054;52.054;8.600;2023-04-08T07:51:35;14.60;46.90
51029;DHT22;37054;52.054;8.600;2023-04-08T07:54:00;14.60;46.70
51029;DHT22;37054;52.054;8.600;2023-04-08T07:56:26;14.60;46.60
51029;DHT22;37054;52.054;8.600;2023-04-08T07:58:51;14.50;46.60
51029;DHT22;37054;52.054;8.600;2023-04-08T08:01:18;14.50;46.70
51029;DHT22;37054;52.054;8.600;2023-04-08T08:03:45;14.50;46.80
51029;DHT22;37054;52.054;8.600;2023-04-08T08:06:11;14.50;46.90
51029;DHT22;37054;52.054;8.600;2023-04-08T08:08:37;14.50;46.90
51029;DHT22;37054;52.054;8.600;2023-04-08T08:11:02;14.60;47.10
51029;DHT22;37054;52.054;8.600;2023-04-08T08:13:28;14.70;47.20
51029;DHT22;37054;52.054;8.600;2023-04-08T08:15:53;14.70;47.10
51029;DHT22;37054;52.054;8.600;2023-04-08T08:18:18;14.80;47.00
51029;DHT22;37054;52.054;8.600;2023-04-08T08:20:44;14.90;47.00
51029;DHT22;37054;52.054;8.600;2023-04-08T08:23:10;15.00;47.10
51029;DHT22;37054;52.054;8.600;2023-04-08T08:25:35;15.20;47.00
51029;DHT22;37054;52.054;8.600;2023-04-08T08:28:01;15.40;46.80
51029;DHT22;37054;52.054;8.600;2023-04-08T08:30:26;15.60;46.30
51029;DHT22;37054;52.054;8.600;2023-04-08T08:32:51;15.80;45.70
51029;DHT22;37054;52.054;8.600;2023-04-08T08:35:17;15.80;45.60
51029;DHT22;37054;52.054;8.600;2023-04-08T08:37:42;15.90;45.50
51029;DHT22;37054;52.054;8.600;2023-04-08T08:40:08;16.00;45.50
51029;DHT22;37054;52.054;8.600;2023-04-08T08:42:34;16.20;45.50
51029;DHT22;37054;52.054;8.600;2023-04-08T08:45:02;16.40;45.20
51029;DHT22;37054;52.054;8.600;2023-04-08T08:47:28;16.70;44.50
51029;DHT22;37054;52.054;8.600;2023-04-08T08:49:54;16.80;44.00
51029;DHT22;37054;52.054;8.600;2023-04-08T08:52:20;16.90;43.90
51029;DHT22;37054;52.054;8.600;2023-04-08T08:54:45;17.10;43.70
51029;DHT22;37054;52.054;8.600;2023-04-08T08:57:17;17.20;43.50
51029;DHT22;37054;52.054;8.600;2023-04-08T08:59:46;17.40;43.30
51029;DHT22;37054;52.054;8.600;2023-04-08T09:02:24;17.50;43.00
51029;DHT22;37054;52.054;8.600;2023-04-08T09:05:03;17.70;42.50
51029;DHT22;37054;52.054;8.600;2023-04-08T09:07:29;17.80;42.20
51029;DHT22;37054;52.054;8.600;2023-04-08T09:09:56;18.00;41.70
51029;DHT22;37054;52.054;8.600;2023-04-08T09:12:22;18.00;41.30
51029;DHT22;37054;52.054;8.600;2023-04-08T09:14:47;18.00;41.30
51029;DHT22;37054;52.054;8.600;2023-04-08T09:17:13;18.10;41.10
51029;DHT22;37054;52.054;8.600;2023-04-08T09:19:39;18.20;41.40
51029;DHT22;37054;52.054;8.600;2023-04-08T09:22:05;18.30;41.20
51029;DHT22;37054;52.054;8.600;2023-04-08T09:24:31;18.40;41.10
51029;DHT22;37054;52.054;8.600;2023-04-08T09:26:57;18.50;40.60
51029;DHT22;37054;52.054;8.600;2023-04-08T09:29:23;18.50;40.10
51029;DHT22;37054;52.054;8.600;2023-04-08T09:31:52;18.50;40.20
51029;DHT22;37054;52.054;8.600;2023-04-08T09:34:17;18.70;40.30
51029;DHT22;37054;52.054;8.600;2023-04-08T09:36:48;18.80;40.50
51029;DHT22;37054;52.054;8.600;2023-04-08T09:39:13;19.00;40.00
51029;DHT22;37054;52.054;8.600;2023-04-08T09:41:39;19.10;39.70
51029;DHT22;37054;52.054;8.600;2023-04-08T09:44:05;19.20;39.70
51029;DHT22;37054;52.054;8.600;2023-04-08T09:49:00;19.50;39.20
51029;DHT22;37054;52.054;8.600;2023-04-08T09:51:31;19.80;39.00
51029;DHT22;37054;52.054;8.600;2023-04-08T09:54:01;20.20;38.40
51029;DHT22;37054;52.054;8.600;2023-04-08T09:56:29;20.30;37.90
51029;DHT22;37054;52.054;8.600;2023-04-08T09:59:02;20.20;38.00
51029;DHT22;37054;52.054;8.600;2023-04-08T10:01:29;20.20;38.00
51029;DHT22;37054;52.054;8.600;2023-04-08T10:03:57;20.10;38.00
51029;DHT22;37054;52.054;8.600;2023-04-08T10:06:25;19.90;37.70
51029;DHT22;37054;52.054;8.600;2023-04-08T10:08:53;19.80;37.40
51029;DHT22;37054;52.054;8.600;2023-04-08T10:11:18;19.60;37.50
51029;DHT22;37054;52.054;8.600;2023-04-08T10:13:44;19.40;37.70
51029;DHT22;37054;52.054;8.600;2023-04-08T10:18:41;19.00;38.50
51029;DHT22;37054;52.054;8.600;2023-04-08T10:23:53;18.80;39.20
51029;DHT22;37054;52.054;8.600;2023-04-08T10:26:29;18.70;39.50
51029;DHT22;37054;52.054;8.600;2023-04-08T10:29:03;18.60;39.70
51029;DHT22;37054;52.054;8.600;2023-04-08T10:31:41;18.60;39.80
51029;DHT22;37054;52.054;8.600;2023-04-08T10:34:16;18.50;39.70
51029;DHT22;37054;52.054;8.600;2023-04-08T10:36:42;18.60;39.80
51029;DHT22;37054;52.054;8.600;2023-04-08T10:39:08;18.50;39.90
51029;DHT22;37054;52.054;8.600;2023-04-08T10:41:34;18.50;39.80
51029;DHT22;37054;52.054;8.600;2023-04-08T10:44:02;18.50;40.00
51029;DHT22;37054;52.054;8.600;2023-04-08T10:46:27;18.40;40.10
51029;DHT22;37054;52.054;8.600;2023-04-08T10:48:59;18.40;40.30
51029;DHT22;37054;52.054;8.600;2023-04-08T10:51:29;18.30;40.10
51029;DHT22;37054;52.054;8.600;2023-04-08T10:53:56;18.30;40.20
51029;DHT22;37054;52.054;8.600;2023-04-08T10:56:29;18.20;40.40
51029;DHT22;37054;52.054;8.600;2023-04-08T10:58:54;18.10;40.50
51029;DHT22;37054;52.054;8.600;2023-04-08T11:01:21;18.00;40.50
51029;DHT22;37054;52.054;8.600;2023-04-08T11:03:46;17.90;40.80
51029;DHT22;37054;52.054;8.600;2023-04-08T11:06:12;17.80;41.10
51029;DHT22;37054;52.054;8.600;2023-04-08T11:08:37;17.80;41.30
51029;DHT22;37054;52.054;8.600;2023-04-08T11:11:04;17.70;41.30
51029;DHT22;37054;52.054;8.600;2023-04-08T11:13:33;17.70;41.30
51029;DHT22;37054;52.054;8.600;2023-04-08T11:16:00;17.60;41.50
51029;DHT22;37054;52.054;8.600;2023-04-08T11:18:26;17.70;41.80
51029;DHT22;37054;52.054;8.600;2023-04-08T11:20:52;17.70;41.80
51029;DHT22;37054;52.054;8.600;2023-04-08T11:23:18;17.80;42.00
51029;DHT22;37054;52.054;8.600;2023-04-08T11:25:44;17.90;42.00
51029;DHT22;37054;52.054;8.600;2023-04-08T11:28:11;18.00;41.70
51029;DHT22;37054;52.054;8.600;2023-04-08T11:30:37;18.00;41.60
51029;DHT22;37054;52.054;8.600;2023-04-08T11:33:03;18.00;41.40
51029;DHT22;37054;52.054;8.600;2023-04-08T11:35:29;18.00;41.50
51029;DHT22;37054;52.054;8.600;2023-04-08T11:37:55;17.90;41.50
51029;DHT22;37054;52.054;8.600;2023-04-08T11:40:20;17.80;41.70
51029;DHT22;37054;52.054;8.600;2023-04-08T11:42:46;17.80;41.90
51029;DHT22;37054;52.054;8.600;2023-04-08T11:45:13;17.80;41.80
51029;DHT22;37054;52.054;8.600;2023-04-08T11:47:38;17.80;41.90
51029;DHT22;37054;52.054;8.600;2023-04-08T11:50:04;17.90;42.00
51029;DHT22;37054;52.054;8.600;2023-04-08T11:52:40;18.10;42.10
51029;DHT22;37054;52.054;8.600;2023-04-08T11:55:06;18.20;41.70
51029;DHT22;37054;52.054;8.600;2023-04-08T11:57:31;18.20;41.60
51029;DHT22;37054;52.054;8.600;2023-04-08T11:59:57;18.20;41.70
51029;DHT22;37054;52.054;8.600;2023-04-08T12:02:22;18.30;42.00
51029;DHT22;37054;52.054;8.600;2023-04-08T12:04:48;18.60;41.90
51029;DHT22;37054;52.054;8.600;2023-04-08T12:07:13;18.90;41.50
51029;DHT22;37054;52.054;8.600;2023-04-08T12:09:39;19.20;40.90
51029;DHT22;37054;52.054;8.600;2023-04-08T12:12:04;19.60;40.70
51029;DHT22;37054;52.054;8.600;2023-04-08T12:14:30;19.70;39.50
51029;DHT22;37054;52.054;8.600;2023-04-08T12:16:55;19.80;39.30
51029;DHT22;37054;52.054;8.600;2023-04-08T12:19:21;19.80;39.20
51029;DHT22;37054;52.054;8.600;2023-04-08T12:21:46;19.80;39.30
51029;DHT22;37054;52.054;8.600;2023-04-08T12:24:12;19.80;39.10
51029;DHT22;37054;52.054;8.600;2023-04-08T12:26:37;19.70;38.90
51029;DHT22;37054;52.054;8.600;2023-04-08T12:29:02;19.60;39.10
51029;DHT22;37054;52.054;8.600;2023-04-08T12:31:28;19.50;39.00
51029;DHT22;37054;52.054;8.600;2023-04-08T12:33:53;19.40;39.20
51029;DHT22;37054;52.054;8.600;2023-04-08T12:36:19;19.30;39.30
51029;DHT22;37054;52.054;8.600;2023-04-08T12:38:44;19.20;39.60
51029;DHT22;37054;52.054;8.600;2023-04-08T12:41:10;19.30;39.90
51029;DHT22;37054;52.054;8.600;2023-04-08T12:43:35;19.30;39.60
51029;DHT22;37054;52.054;8.600;2023-04-08T12:46:01;19.30;39.60
51029;DHT22;37054;52.054;8.600;2023-04-08T12:48:27;19.30;39.50
51029;DHT22;37054;52.054;8.600;2023-04-08T12:50:52;19.20;39.50
51029;DHT22;37054;52.054;8.600;2023-04-08T12:53:18;19.10;39.60
51029;DHT22;37054;52.054;8.600;2023-04-08T12:55:43;19.00;39.70
51029;DHT22;37054;52.054;8.600;2023-04-08T12:58:09;18.90;40.00
51029;DHT22;37054;52.054;8.600;2023-04-08T13:00:36;18.80;40.30
51029;DHT22;37054;52.054;8.600;2023-04-08T13:03:02;18.70;40.40
51029;DHT22;37054;52.054;8.600;2023-04-08T13:05:28;18.70;40.50
51029;DHT22;37054;52.054;8.600;2023-04-08T13:07:53;18.70;40.60
51029;DHT22;37054;52.054;8.600;2023-04-08T13:10:18;18.60;40.60
51029;DHT22;37054;52.054;8.600;2023-04-08T13:12:44;18.60;40.70
51029;DHT22;37054;52.054;8.600;2023-04-08T13:15:09;18.50;40.80
51029;DHT22;37054;52.054;8.600;2023-04-08T13:17:35;18.50;40.90
51029;DHT22;37054;52.054;8.600;2023-04-08T13:20:03;18.50;41.10
51029;DHT22;37054;52.054;8.600;2023-04-08T13:22:29;18.50;41.30
51029;DHT22;37054;52.054;8.600;2023-04-08T13:24:54;18.60;41.30
51029;DHT22;37054;52.054;8.600;2023-04-08T13:27:19;18.60;41.20
51029;DHT22;37054;52.054;8.600;2023-04-08T13:29:45;18.50;41.20
51029;DHT22;37054;52.054;8.600;2023-04-08T13:32:11;18.50;41.20
51029;DHT22;37054;52.054;8.600;2023-04-08T13:34:36;18.50;41.20
51029;DHT22;37054;52.054;8.600;2023-04-08T13:37:02;18.40;41.30
51029;DHT22;37054;52.054;8.600;2023-04-08T13:39:27;18.40;41.50
51029;DHT22;37054;52.054;8.600;2023-04-08T13:41:53;18.40;41.60
51029;DHT22;37054;52.054;8.600;2023-04-08T13:44:18;18.30;41.40
51029;DHT22;37054;52.054;8.600;2023-04-08T13:46:44;18.20;41.60
51029;DHT22;37054;52.054;8.600;2023-04-08T13:49:09;18.20;41.70
51029;DHT22;37054;52.054;8.600;2023-04-08T13:51:35;18.20;41.80
51029;DHT22;37054;52.054;8.600;2023-04-08T13:54:00;18.20;41.90
51029;DHT22;37054;52.054;8.600;2023-04-08T13:56:26;18.20;42.10
51029;DHT22;37054;52.054;8.600;2023-04-08T13:58:51;18.20;42.10
51029;DHT22;37054;52.054;8.600;2023-04-08T14:01:16;18.30;42.20
51029;DHT22;37054;52.054;8.600;2023-04-08T14:03:42;18.30;42.20
51029;DHT22;37054;52.054;8.600;2023-04-08T14:06:07;18.50;42.10
51029;DHT22;37054;52.054;8.600;2023-04-08T14:08:33;18.70;41.90
51029;DHT22;37054;52.054;8.600;2023-04-08T14:10:58;19.00;41.70
51029;DHT22;37054;52.054;8.600;2023-04-08T14:13:24;19.10;41.40
51029;DHT22;37054;52.054;8.600;2023-04-08T14:15:49;19.20;41.20
51029;DHT22;37054;52.054;8.600;2023-04-08T14:18:16;19.20;40.80
51029;DHT22;37054;52.054;8.600;2023-04-08T14:20:42;19.30;40.50
51029;DHT22;37054;52.054;8.600;2023-04-08T14:23:07;19.20;40.40
51029;DHT22;37054;52.054;8.600;2023-04-08T14:25:33;19.20;40.20
51029;DHT22;37054;52.054;8.600;2023-04-08T14:27:58;19.20;40.40
51029;DHT22;37054;52.054;8.600;2023-04-08T14:30:24;19.10;40.30
51029;DHT22;37054;52.054;8.600;2023-04-08T14:32:49;19.00;40.40
51029;DHT22;37054;52.054;8.600;2023-04-08T14:35:15;18.90;40.50
51029;DHT22;37054;52.054;8.600;2023-04-08T14:37:40;18.80;40.70
51029;DHT22;37054;52.054;8.600;2023-04-08T14:40:06;18.80;40.80
51029;DHT22;37054;52.054;8.600;2023-04-08T14:42:31;18.80;40.90
51029;DHT22;37054;52.054;8.600;2023-04-08T14:44:57;18.80;40.90
51029;DHT22;37054;52.054;8.600;2023-04-08T14:47:22;18.70;40.90
51029;DHT22;37054;52.054;8.600;2023-04-08T14:49:48;18.70;41.00
51029;DHT22;37054;52.054;8.600;2023-04-08T14:52:13;18.60;41.20
51029;DHT22;37054;52.054;8.600;2023-04-08T14:54:39;18.50;41.40
51029;DHT22;37054;52.054;8.600;2023-04-08T14:57:05;18.40;41.50
51029;DHT22;37054;52.054;8.600;2023-04-08T14:59:31;18.40;41.60
51029;DHT22;37054;52.054;8.600;2023-04-08T15:01:56;18.30;41.80
51029;DHT22;37054;52.054;8.600;2023-04-08T15:04:22;18.20;42.00
51029;DHT22;37054;52.054;8.600;2023-04-08T15:06:47;18.20;42.10
51029;DHT22;37054;52.054;8.600;2023-04-08T15:09:12;18.30;42.20
51029;DHT22;37054;52.054;8.600;2023-04-08T15:11:38;18.20;42.20
51029;DHT22;37054;52.054;8.600;2023-04-08T15:14:03;18.20;42.30
51029;DHT22;37054;52.054;8.600;2023-04-08T15:16:29;18.20;42.40
51029;DHT22;37054;52.054;8.600;2023-04-08T15:18:54;18.10;42.50
51029;DHT22;37054;52.054;8.600;2023-04-08T15:21:20;18.10;42.60
51029;DHT22;37054;52.054;8.600;2023-04-08T15:23:47;18.10;42.70
51029;DHT22;37054;52.054;8.600;2023-04-08T15:26:13;18.00;42.80
51029;DHT22;37054;52.054;8.600;2023-04-08T15:28:38;18.00;42.80
51029;DHT22;37054;52.054;8.600;2023-04-08T15:31:04;18.00;42.90
51029;DHT22;37054;52.054;8.600;2023-04-08T15:33:30;18.00;43.10